sensor_id;sensor_type;location;lat;lon;timestamp;P1;durP1;ratioP1;P2;durP2;ratioP2
51961;SDS011;37986;51.238;17.128;2022-07-01T00:00:51;12.10;;;10.78;;
51961;SDS011;37986;51.238;17.128;2022-07-01T00:03:17;11.12;;;10.00;;
51961;SDS011;37986;51.238;17.128;2022-07-01T00:05:42;12.63;;;10.68;;
51961;SDS011;37986;51.238;17.128;2022-07-01T00:08:08;12.45;;;10.63;;
51961;SDS011;37986;51.238;17.128;2022-07-01T00:10:34;12.82;;;10.65;;
51961;SDS011;37986;51.238;17.128;2022-07-01T00:13:02;14.50;;;10.95;;
51961;SDS011;37986;51.238;17.128;2022-07-01T00:15:29;12.37;;;10.53;;
51961;SDS011;37986;51.238;17.128;2022-07-01T00:17:55;11.33;;;10.17;;
51961;SDS011;37986;51.238;17.128;2022-07-01T00:20:21;16.50;;;10.25;;
51961;SDS011;37986;51.238;17.128;2022-07-01T00:22:46;13.13;;;10.60;;
51961;SDS011;37986;51.238;17.128;2022-07-01T00:25:12;11.97;;;9.50;;
51961;SDS011;37986;51.238;17.128;2022-07-01T00:27:38;12.98;;;10.18;;
51961;SDS011;37986;51.238;17.128;2022-07-01T00:30:06;15.75;;;10.15;;
51961;SDS011;37986;51.238;17.128;2022-07-01T00:32:34;13.25;;;10.45;;
51961;SDS011;37986;51.238;17.128;2022-07-01T00:35:01;13.00;;;10.70;;
51961;SDS011;37986;51.238;17.128;2022-07-01T00:37:28;11.95;;;10.68;;
51961;SDS011;37986;51.238;17.128;2022-07-01T00:39:53;11.65;;;10.45;;
51961;SDS011;37986;51.238;17.128;2022-07-01T00:42:19;12.55;;;10.18;;
51961;SDS011;37986;51.238;17.128;2022-07-01T00:44:45;12.90;;;10.60;;
51961;SDS011;37986;51.238;17.128;2022-07-01T00:47:12;12.05;;;9.73;;
51961;SDS011;37986;51.238;17.128;2022-07-01T00:49:39;12.10;;;9.48;;
51961;SDS011;37986;51.238;17.128;2022-07-01T00:52:05;11.75;;;10.28;;
51961;SDS011;37986;51.238;17.128;2022-07-01T00:54:34;13.40;;;9.88;;
51961;SDS011;37986;51.238;17.128;2022-07-01T00:57:07;15.20;;;9.90;;
51961;SDS011;37986;51.238;17.128;2022-07-01T00:59:37;12.07;;;9.50;;
51961;SDS011;37986;51.238;17.128;2022-07-01T01:02:05;13.03;;;9.35;;
51961;SDS011;37986;51.238;17.128;2022-07-01T01:04:32;11.18;;;9.68;;
51961;SDS011;37986;51.238;17.128;2022-07-01T01:07:00;10.25;;;9.23;;
51961;SDS011;37986;51.238;17.128;2022-07-01T01:09:27;11.05;;;9.95;;
51961;SDS011;37986;51.238;17.128;2022-07-01T01:11:55;11.10;;;9.98;;
51961;SDS011;37986;51.238;17.128;2022-07-01T01:14:23;15.28;;;10.60;;
51961;SDS011;37986;51.238;17.128;2022-07-01T01:16:50;18.57;;;10.72;;
51961;SDS011;37986;51.238;17.128;2022-07-01T01:19:16;11.80;;;10.13;;
51961;SDS011;37986;51.238;17.128;2022-07-01T01:21:41;11.48;;;9.30;;
51961;SDS011;37986;51.238;17.128;2022-07-01T01:24:07;9.65;;;8.65;;
51961;SDS011;37986;51.238;17.128;2022-07-01T01:26:33;11.33;;;9.80;;
51961;SDS011;37986;51.238;17.128;2022-07-01T01:28:59;14.23;;;9.93;;
51961;SDS011;37986;51.238;17.128;2022-07-01T01:31:29;10.25;;;9.25;;
51961;SDS011;37986;51.238;17.128;2022-07-01T01:33:58;10.90;;;9.90;;
51961;SDS011;37986;51.238;17.128;2022-07-01T01:36:25;12.28;;;9.73;;
51961;SDS011;37986;51.238;17.128;2022-07-01T01:38:51;14.80;;;11.03;;
51961;SDS011;37986;51.238;17.128;2022-07-01T01:41:18;13.43;;;10.55;;
51961;SDS011;37986;51.238;17.128;2022-07-01T01:43:44;13.95;;;10.32;;
51961;SDS011;37986;51.238;17.128;2022-07-01T01:46:10;11.93;;;9.60;;
51961;SDS011;37986;51.238;17.128;2022-07-01T01:48:36;12.73;;;9.60;;
51961;SDS011;37986;51.238;17.128;2022-07-01T01:51:01;13.50;;;9.80;;
51961;SDS011;37986;51.238;17.128;2022-07-01T01:53:28;11.88;;;9.45;;
51961;SDS011;37986;51.238;17.128;2022-07-01T01:55:53;10.98;;;9.88;;
51961;SDS011;37986;51.238;17.128;2022-07-01T01:58:19;11.05;;;9.55;;
51961;SDS011;37986;51.238;17.128;2022-07-01T02:00:45;12.10;;;9.78;;
51961;SDS011;37986;51.238;17.128;2022-07-01T02:03:11;15.95;;;9.88;;
51961;SDS011;37986;51.238;17.128;2022-07-01T02:05:37;13.75;;;9.43;;
51961;SDS011;37986;51.238;17.128;2022-07-01T02:08:03;11.85;;;9.05;;
51961;SDS011;37986;51.238;17.128;2022-07-01T02:10:29;13.30;;;9.25;;
51961;SDS011;37986;51.238;17.128;2022-07-01T02:12:55;10.98;;;8.30;;
51961;SDS011;37986;51.238;17.128;2022-07-01T02:15:21;12.37;;;9.33;;
51961;SDS011;37986;51.238;17.128;2022-07-01T02:17:47;10.93;;;8.03;;
51961;SDS011;37986;51.238;17.128;2022-07-01T02:20:13;12.15;;;8.40;;
51961;SDS011;37986;51.238;17.128;2022-07-01T02:22:40;11.35;;;7.87;;
51961;SDS011;37986;51.238;17.128;2022-07-01T02:25:07;12.07;;;8.00;;
51961;SDS011;37986;51.238;17.128;2022-07-01T02:27:34;16.00;;;8.20;;
51961;SDS011;37986;51.238;17.128;2022-07-01T02:30:02;8.80;;;7.90;;
51961;SDS011;37986;51.238;17.128;2022-07-01T02:32:31;12.63;;;7.72;;
51961;SDS011;37986;51.238;17.128;2022-07-01T02:34:57;10.30;;;7.90;;
51961;SDS011;37986;51.238;17.128;2022-07-01T02:37:23;12.00;;;7.90;;
51961;SDS011;37986;51.238;17.128;2022-07-01T02:39:48;9.93;;;8.33;;
51961;SDS011;37986;51.238;17.128;2022-07-01T02:42:14;10.23;;;8.83;;
51961;SDS011;37986;51.238;17.128;2022-07-01T02:44:50;11.83;;;8.90;;
51961;SDS011;37986;51.238;17.128;2022-07-01T02:47:17;12.33;;;9.53;;
51961;SDS011;37986;51.238;17.128;2022-07-01T02:49:42;11.12;;;8.88;;
51961;SDS011;37986;51.238;17.128;2022-07-01T02:52:08;12.85;;;9.48;;
51961;SDS011;37986;51.238;17.128;2022-07-01T02:54:34;16.60;;;9.40;;
51961;SDS011;37986;51.238;17.128;2022-07-01T02:57:01;11.33;;;8.88;;
51961;SDS011;37986;51.238;17.128;2022-07-01T02:59:27;14.87;;;8.85;;
51961;SDS011;37986;51.238;17.128;2022-07-01T03:01:54;12.45;;;9.05;;
51961;SDS011;37986;51.238;17.128;2022-07-01T03:04:20;14.20;;;9.73;;
51961;SDS011;37986;51.238;17.128;2022-07-01T03:06:46;13.70;;;9.30;;
51961;SDS011;37986;51.238;17.128;2022-07-01T03:09:11;16.65;;;9.78;;
51961;SDS011;37986;51.238;17.128;2022-07-01T03:11:37;15.83;;;10.05;;
51961;SDS011;37986;51.238;17.128;2022-07-01T03:14:03;16.62;;;9.98;;
51961;SDS011;37986;51.238;17.128;2022-07-01T03:16:29;11.95;;;9.45;;
51961;SDS011;37986;51.238;17.128;2022-07-01T03:18:54;13.13;;;10.20;;
51961;SDS011;37986;51.238;17.128;2022-07-01T03:21:20;15.78;;;10.32;;
51961;SDS011;37986;51.238;17.128;2022-07-01T03:23:46;14.20;;;10.70;;
51961;SDS011;37986;51.238;17.128;2022-07-01T03:26:12;14.55;;;9.13;;
51961;SDS011;37986;51.238;17.128;2022-07-01T03:28:39;13.08;;;9.95;;
51961;SDS011;37986;51.238;17.128;2022-07-01T03:31:06;11.88;;;10.40;;
51961;SDS011;37986;51.238;17.128;2022-07-01T03:33:32;13.88;;;9.85;;
51961;SDS011;37986;51.238;17.128;2022-07-01T03:35:57;13.93;;;9.90;;
51961;SDS011;37986;51.238;17.128;2022-07-01T03:38:23;16.25;;;10.65;;
51961;SDS011;37986;51.238;17.128;2022-07-01T03:40:49;12.95;;;10.00;;
51961;SDS011;37986;51.238;17.128;2022-07-01T03:43:15;13.00;;;9.48;;
51961;SDS011;37986;51.238;17.128;2022-07-01T03:45:41;11.93;;;10.00;;
51961;SDS011;37986;51.238;17.128;2022-07-01T03:48:07;12.95;;;9.13;;
51961;SDS011;37986;51.238;17.128;2022-07-01T03:50:33;13.65;;;9.30;;
51961;SDS011;37986;51.238;17.128;2022-07-01T03:52:58;15.83;;;10.20;;
51961;SDS011;37986;51.238;17.128;2022-07-01T03:55:43;12.88;;;9.53;;
51961;SDS011;37986;51.238;17.128;2022-07-01T03:58:09;12.45;;;9.23;;
51961;SDS011;37986;51.238;17.128;2022-07-01T04:00:35;12.98;;;9.78;;
51961;SDS011;37986;51.238;17.128;2022-07-01T04:03:03;14.63;;;10.53;;
51961;SDS011;37986;51.238;17.128;2022-07-01T04:05:35;11.45;;;9.98;;
51961;SDS011;37986;51.238;17.128;2022-07-01T04:08:06;11.95;;;10.00;;
51961;SDS011;37986;51.238;17.128;2022-07-01T04:10:33;13.08;;;10.13;;
51961;SDS011;37986;51.238;17.128;2022-07-01T04:13:00;11.83;;;10.08;;
51961;SDS011;37986;51.238;17.128;2022-07-01T04:15:27;11.70;;;10.03;;
51961;SDS011;37986;51.238;17.128;2022-07-01T04:17:53;11.10;;;9.95;;
51961;SDS011;37986;51.238;17.128;2022-07-01T04:20:19;11.95;;;10.35;;
51961;SDS011;37986;51.238;17.128;2022-07-01T04:22:45;12.90;;;10.65;;
51961;SDS011;37986;51.238;17.128;2022-07-01T04:25:11;14.00;;;11.08;;
51961;SDS011;37986;51.238;17.128;2022-07-01T04:27:38;13.75;;;11.22;;
51961;SDS011;37986;51.238;17.128;2022-07-01T04:30:04;15.60;;;11.80;;
51961;SDS011;37986;51.238;17.128;2022-07-01T04:32:31;15.58;;;11.28;;
51961;SDS011;37986;51.238;17.128;2022-07-01T04:34:57;16.67;;;11.75;;
51961;SDS011;37986;51.238;17.128;2022-07-01T04:37:23;16.45;;;11.70;;
51961;SDS011;37986;51.238;17.128;2022-07-01T04:39:49;14.95;;;12.10;;
51961;SDS011;37986;51.238;17.128;2022-07-01T04:42:15;15.48;;;12.03;;
51961;SDS011;37986;51.238;17.128;2022-07-01T04:44:43;12.95;;;11.50;;
51961;SDS011;37986;51.238;17.128;2022-07-01T04:47:09;14.65;;;11.25;;
51961;SDS011;37986;51.238;17.128;2022-07-01T04:49:35;13.05;;;11.68;;
51961;SDS011;37986;51.238;17.128;2022-07-01T04:52:01;13.78;;;11.25;;
51961;SDS011;37986;51.238;17.128;2022-07-01T04:54:27;15.38;;;11.30;;
51961;SDS011;37986;51.238;17.128;2022-07-01T04:56:52;15.15;;;11.57;;
51961;SDS011;37986;51.238;17.128;2022-07-01T04:59:19;14.30;;;11.45;;
51961;SDS011;37986;51.238;17.128;2022-07-01T05:01:45;13.83;;;11.03;;
51961;SDS011;37986;51.238;17.128;2022-07-01T05:04:15;15.28;;;12.15;;
51961;SDS011;37986;51.238;17.128;2022-07-01T05:06:43;15.25;;;11.18;;
51961;SDS011;37986;51.238;17.128;2022-07-01T05:09:09;12.37;;;11.00;;
51961;SDS011;37986;51.238;17.128;2022-07-01T05:11:35;13.98;;;11.15;;
51961;SDS011;37986;51.238;17.128;2022-07-01T05:14:00;17.32;;;11.68;;
51961;SDS011;37986;51.238;17.128;2022-07-01T05:16:26;14.78;;;11.33;;
51961;SDS011;37986;51.238;17.128;2022-07-01T05:18:52;15.72;;;11.18;;
51961;SDS011;37986;51.238;17.128;2022-07-01T05:21:36;13.68;;;11.43;;
51961;SDS011;37986;51.238;17.128;2022-07-01T05:24:20;13.62;;;11.48;;
51961;SDS011;37986;51.238;17.128;2022-07-01T05:26:46;13.95;;;11.80;;
51961;SDS011;37986;51.238;17.128;2022-07-01T05:29:12;18.35;;;11.78;;
51961;SDS011;37986;51.238;17.128;2022-07-01T05:31:38;15.18;;;11.38;;
51961;SDS011;37986;51.238;17.128;2022-07-01T05:34:04;14.18;;;12.28;;
51961;SDS011;37986;51.238;17.128;2022-07-01T05:36:32;13.32;;;11.33;;
51961;SDS011;37986;51.238;17.128;2022-07-01T05:38:59;15.78;;;11.57;;
51961;SDS011;37986;51.238;17.128;2022-07-01T05:41:26;16.57;;;11.65;;
51961;SDS011;37986;51.238;17.128;2022-07-01T05:43:52;14.63;;;11.85;;
51961;SDS011;37986;51.238;17.128;2022-07-01T05:46:18;13.00;;;11.68;;
51961;SDS011;37986;51.238;17.128;2022-07-01T05:48:44;16.20;;;13.18;;
51961;SDS011;37986;51.238;17.128;2022-07-01T05:51:11;16.87;;;12.37;;
51961;SDS011;37986;51.238;17.128;2022-07-01T05:53:37;18.52;;;13.00;;
51961;SDS011;37986;51.238;17.128;2022-07-01T05:56:03;14.33;;;12.93;;
51961;SDS011;37986;51.238;17.128;2022-07-01T05:58:29;16.62;;;14.07;;
51961;SDS011;37986;51.238;17.128;2022-07-01T06:00:55;16.62;;;13.15;;
51961;SDS011;37986;51.238;17.128;2022-07-01T06:03:21;17.95;;;13.93;;
51961;SDS011;37986;51.238;17.128;2022-07-01T06:05:47;18.57;;;14.58;;
51961;SDS011;37986;51.238;17.128;2022-07-01T06:08:13;14.83;;;13.20;;
51961;SDS011;37986;51.238;17.128;2022-07-01T06:10:38;20.55;;;13.83;;
51961;SDS011;37986;51.238;17.128;2022-07-01T06:13:04;14.18;;;12.23;;
51961;SDS011;37986;51.238;17.128;2022-07-01T06:15:31;20.88;;;13.28;;
51961;SDS011;37986;51.238;17.128;2022-07-01T06:17:57;17.35;;;13.25;;
51961;SDS011;37986;51.238;17.128;2022-07-01T06:20:23;13.62;;;12.13;;
51961;SDS011;37986;51.238;17.128;2022-07-01T06:22:49;20.70;;;13.50;;
51961;SDS011;37986;51.238;17.128;2022-07-01T06:25:15;18.60;;;13.25;;
51961;SDS011;37986;51.238;17.128;2022-07-01T06:27:41;14.80;;;12.95;;
51961;SDS011;37986;51.238;17.128;2022-07-01T06:30:09;19.37;;;14.47;;
51961;SDS011;37986;51.238;17.128;2022-07-01T06:32:36;16.27;;;13.78;;
51961;SDS011;37986;51.238;17.128;2022-07-01T06:35:03;22.98;;;13.62;;
51961;SDS011;37986;51.238;17.128;2022-07-01T06:37:30;18.85;;;13.53;;
51961;SDS011;37986;51.238;17.128;2022-07-01T06:40:05;19.67;;;13.93;;
51961;SDS011;37986;51.238;17.128;2022-07-01T06:42:30;15.43;;;13.18;;
51961;SDS011;37986;51.238;17.128;2022-07-01T06:44:56;18.95;;;14.03;;
51961;SDS011;37986;51.238;17.128;2022-07-01T06:47:22;15.93;;;14.28;;
51961;SDS011;37986;51.238;17.128;2022-07-01T06:49:48;18.77;;;13.48;;
51961;SDS011;37986;51.238;17.128;2022-07-01T06:52:14;16.35;;;14.23;;
51961;SDS011;37986;51.238;17.128;2022-07-01T06:54:40;16.15;;;13.00;;
51961;SDS011;37986;51.238;17.128;2022-07-01T06:57:06;15.60;;;13.85;;
51961;SDS011;37986;51.238;17.128;2022-07-01T06:59:33;17.40;;;12.98;;
51961;SDS011;37986;51.238;17.128;2022-07-01T07:01:59;16.87;;;13.28;;
51961;SDS011;37986;51.238;17.128;2022-07-01T07:04:25;18.37;;;14.03;;
51961;SDS011;37986;51.238;17.128;2022-07-01T07:06:51;19.27;;;13.15;;
51961;SDS011;37986;51.238;17.128;2022-07-01T07:09:17;17.30;;;13.43;;
51961;SDS011;37986;51.238;17.128;2022-07-01T07:11:43;18.40;;;13.78;;
51961;SDS011;37986;51.238;17.128;2022-07-01T07:14:09;17.67;;;13.48;;
51961;SDS011;37986;51.238;17.128;2022-07-01T07:16:35;18.65;;;12.53;;
51961;SDS011;37986;51.238;17.128;2022-07-01T07:19:03;16.60;;;12.45;;
51961;SDS011;37986;51.238;17.128;2022-07-01T07:21:29;14.25;;;12.30;;
51961;SDS011;37986;51.238;17.128;2022-07-01T07:23:55;18.27;;;12.07;;
51961;SDS011;37986;51.238;17.128;2022-07-01T07:26:22;22.87;;;13.05;;
51961;SDS011;37986;51.238;17.128;2022-07-01T07:28:48;19.07;;;12.70;;
51961;SDS011;37986;51.238;17.128;2022-07-01T07:31:14;18.00;;;14.13;;
51961;SDS011;37986;51.238;17.128;2022-07-01T07:33:40;17.35;;;13.18;;
51961;SDS011;37986;51.238;17.128;2022-07-01T07:36:05;16.37;;;13.10;;
51961;SDS011;37986;51.238;17.128;2022-07-01T07:38:32;15.60;;;13.58;;
51961;SDS011;37986;51.238;17.128;2022-07-01T07:40:58;15.20;;;13.10;;
51961;SDS011;37986;51.238;17.128;2022-07-01T07:43:25;17.23;;;13.65;;
51961;SDS011;37986;51.238;17.128;2022-07-01T07:45:51;13.85;;;12.33;;
51961;SDS011;37986;51.238;17.128;2022-07-01T07:48:17;14.28;;;12.78;;
51961;SDS011;37986;51.238;17.128;2022-07-01T07:50:43;17.20;;;14.07;;
51961;SDS011;37986;51.238;17.128;2022-07-01T07:53:09;14.13;;;12.33;;
51961;SDS011;37986;51.238;17.128;2022-07-01T07:55:37;15.30;;;12.65;;
51961;SDS011;37986;51.238;17.128;2022-07-01T07:58:04;15.08;;;13.38;;
51961;SDS011;37986;51.238;17.128;2022-07-01T08:00:31;17.52;;;11.97;;
51961;SDS011;37986;51.238;17.128;2022-07-01T08:02:57;14.73;;;11.70;;
51961;SDS011;37986;51.238;17.128;2022-07-01T08:05:23;13.13;;;11.85;;
51961;SDS011;37986;51.238;17.128;2022-07-01T08:07:49;17.92;;;11.48;;
51961;SDS011;37986;51.238;17.128;2022-07-01T08:10:15;14.50;;;11.78;;
51961;SDS011;37986;51.238;17.128;2022-07-01T08:12:41;16.07;;;13.25;;
51961;SDS011;37986;51.238;17.128;2022-07-01T08:15:07;14.23;;;12.03;;
51961;SDS011;37986;51.238;17.128;2022-07-01T08:17:34;17.15;;;11.33;;
51961;SDS011;37986;51.238;17.128;2022-07-01T08:20:01;15.35;;;11.48;;
51961;SDS011;37986;51.238;17.128;2022-07-01T08:22:27;12.68;;;10.60;;
51961;SDS011;37986;51.238;17.128;2022-07-01T08:24:54;16.55;;;11.38;;
51961;SDS011;37986;51.238;17.128;2022-07-01T08:27:20;17.87;;;10.70;;
51961;SDS011;37986;51.238;17.128;2022-07-01T08:29:46;12.07;;;10.08;;
51961;SDS011;37986;51.238;17.128;2022-07-01T08:32:11;18.42;;;11.10;;
51961;SDS011;37986;51.238;17.128;2022-07-01T08:34:37;17.17;;;11.55;;
51961;SDS011;37986;51.238;17.128;2022-07-01T08:37:03;13.50;;;10.28;;
51961;SDS011;37986;51.238;17.128;2022-07-01T08:39:30;15.58;;;10.48;;
51961;SDS011;37986;51.238;17.128;2022-07-01T08:41:56;14.78;;;11.12;;
51961;SDS011;37986;51.238;17.128;2022-07-01T08:44:23;16.52;;;11.03;;
51961;SDS011;37986;51.238;17.128;2022-07-01T08:46:49;15.43;;;11.38;;
51961;SDS011;37986;51.238;17.128;2022-07-01T08:49:15;15.55;;;10.32;;
51961;SDS011;37986;51.238;17.128;2022-07-01T08:51:41;18.40;;;11.03;;
51961;SDS011;37986;51.238;17.128;2022-07-01T08:54:07;13.40;;;12.00;;
51961;SDS011;37986;51.238;17.128;2022-07-01T08:56:33;15.35;;;10.60;;
51961;SDS011;37986;51.238;17.128;2022-07-01T08:59:11;16.05;;;10.93;;
51961;SDS011;37986;51.238;17.128;2022-07-01T09:01:39;12.43;;;11.12;;
51961;SDS011;37986;51.238;17.128;2022-07-01T09:04:12;13.18;;;11.35;;
51961;SDS011;37986;51.238;17.128;2022-07-01T09:06:42;14.45;;;10.05;;
51961;SDS011;37986;51.238;17.128;2022-07-01T09:09:12;13.32;;;9.80;;
51961;SDS011;37986;51.238;17.128;2022-07-01T09:11:45;18.20;;;9.93;;
51961;SDS011;37986;51.238;17.128;2022-07-01T09:14:23;12.53;;;9.78;;
51961;SDS011;37986;51.238;17.128;2022-07-01T09:16:56;15.98;;;10.85;;
51961;SDS011;37986;51.238;17.128;2022-07-01T09:19:26;13.32;;;10.08;;
51961;SDS011;37986;51.238;17.128;2022-07-01T09:21:56;12.28;;;9.93;;
51961;SDS011;37986;51.238;17.128;2022-07-01T09:24:33;12.82;;;9.58;;
51961;SDS011;37986;51.238;17.128;2022-07-01T09:27:05;11.22;;;9.75;;
51961;SDS011;37986;51.238;17.128;2022-07-01T09:29:36;13.72;;;9.85;;
51961;SDS011;37986;51.238;17.128;2022-07-01T09:32:06;11.30;;;9.23;;
51961;SDS011;37986;51.238;17.128;2022-07-01T09:34:35;10.48;;;9.03;;
51961;SDS011;37986;51.238;17.128;2022-07-01T09:37:07;10.75;;;9.33;;
51961;SDS011;37986;51.238;17.128;2022-07-01T09:39:49;12.33;;;9.73;;
51961;SDS011;37986;51.238;17.128;2022-07-01T09:42:19;12.30;;;9.43;;
51961;SDS011;37986;51.238;17.128;2022-07-01T09:45:00;11.68;;;10.38;;
51961;SDS011;37986;51.238;17.128;2022-07-01T09:47:32;10.80;;;9.65;;
51961;SDS011;37986;51.238;17.128;2022-07-01T09:50:01;11.83;;;10.23;;
51961;SDS011;37986;51.238;17.128;2022-07-01T09:52:29;12.07;;;10.65;;
51961;SDS011;37986;51.238;17.128;2022-07-01T09:54:55;12.37;;;10.38;;
51961;SDS011;37986;51.238;17.128;2022-07-01T09:57:21;14.03;;;10.93;;
51961;SDS011;37986;51.238;17.128;2022-07-01T09:59:48;12.98;;;10.80;;
51961;SDS011;37986;51.238;17.128;2022-07-01T10:02:15;13.15;;;11.30;;
51961;SDS011;37986;51.238;17.128;2022-07-01T10:04:49;16.67;;;12.00;;
51961;SDS011;37986;51.238;17.128;2022-07-01T10:12:55;12.88;;;10.45;;
51961;SDS011;37986;51.238;17.128;2022-07-01T10:15:21;14.30;;;9.90;;
51961;SDS011;37986;51.238;17.128;2022-07-01T10:17:48;14.03;;;10.15;;
51961;SDS011;37986;51.238;17.128;2022-07-01T10:20:19;16.00;;;10.30;;
51961;SDS011;37986;51.238;17.128;2022-07-01T10:22:59;13.90;;;11.18;;
51961;SDS011;37986;51.238;17.128;2022-07-01T10:28:27;15.80;;;11.33;;
51961;SDS011;37986;51.238;17.128;2022-07-01T10:36:18;11.93;;;10.48;;
51961;SDS011;37986;51.238;17.128;2022-07-01T10:44:26;14.58;;;10.70;;
51961;SDS011;37986;51.238;17.128;2022-07-01T10:46:54;15.55;;;10.60;;
51961;SDS011;37986;51.238;17.128;2022-07-01T10:52:13;11.63;;;10.43;;
51961;SDS011;37986;51.238;17.128;2022-07-01T10:59:54;12.53;;;10.80;;
51961;SDS011;37986;51.238;17.128;2022-07-01T11:02:30;12.45;;;10.10;;
51961;SDS011;37986;51.238;17.128;2022-07-01T11:07:39;11.48;;;10.38;;
51961;SDS011;37986;51.238;17.128;2022-07-01T11:10:11;14.90;;;10.38;;
51961;SDS011;37986;51.238;17.128;2022-07-01T11:12:41;11.57;;;10.08;;
51961;SDS011;37986;51.238;17.128;2022-07-01T11:15:13;11.28;;;9.73;;
51961;SDS011;37986;51.238;17.128;2022-07-01T11:17:46;10.95;;;9.75;;
51961;SDS011;37986;51.238;17.128;2022-07-01T11:20:10;13.78;;;9.68;;
51961;SDS011;37986;51.238;17.128;2022-07-01T11:22:37;12.75;;;9.83;;
51961;SDS011;37986;51.238;17.128;2022-07-01T11:25:04;13.30;;;9.45;;
51961;SDS011;37986;51.238;17.128;2022-07-01T11:27:33;13.53;;;9.90;;
51961;SDS011;37986;51.238;17.128;2022-07-01T11:30:02;12.90;;;9.33;;
51961;SDS011;37986;51.238;17.128;2022-07-01T11:32:34;11.57;;;9.38;;
51961;SDS011;37986;51.238;17.128;2022-07-01T11:35:03;9.95;;;8.78;;
51961;SDS011;37986;51.238;17.128;2022-07-01T11:37:35;13.15;;;9.65;;
51961;SDS011;37986;51.238;17.128;2022-07-01T11:40:20;14.13;;;8.90;;
51961;SDS011;37986;51.238;17.128;2022-07-01T11:42:45;12.45;;;8.58;;
51961;SDS011;37986;51.238;17.128;2022-07-01T11:45:21;10.50;;;8.90;;
51961;SDS011;37986;51.238;17.128;2022-07-01T11:47:49;11.18;;;8.53;;
51961;SDS011;37986;51.238;17.128;2022-07-01T11:50:15;9.45;;;7.58;;
51961;SDS011;37986;51.238;17.128;2022-07-01T11:52:41;11.68;;;8.03;;
51961;SDS011;37986;51.238;17.128;2022-07-01T11:55:08;10.00;;;8.95;;
51961;SDS011;37986;51.238;17.128;2022-07-01T11:57:34;9.58;;;8.35;;
51961;SDS011;37986;51.238;17.128;2022-07-01T12:00:07;11.63;;;8.48;;
51961;SDS011;37986;51.238;17.128;2022-07-01T12:02:37;14.25;;;8.75;;
51961;SDS011;37986;51.238;17.128;2022-07-01T12:05:04;13.30;;;8.93;;
51961;SDS011;37986;51.238;17.128;2022-07-01T12:07:31;10.95;;;8.40;;
51961;SDS011;37986;51.238;17.128;2022-07-01T12:09:58;12.53;;;8.45;;
51961;SDS011;37986;51.238;17.128;2022-07-01T12:12:26;11.85;;;9.50;;
51961;SDS011;37986;51.238;17.128;2022-07-01T12:14:56;10.65;;;8.60;;
51961;SDS011;37986;51.238;17.128;2022-07-01T12:17:26;10.32;;;9.30;;
51961;SDS011;37986;51.238;17.128;2022-07-01T12:19:53;16.20;;;8.75;;
51961;SDS011;37986;51.238;17.128;2022-07-01T12:22:21;19.52;;;6.75;;
51961;SDS011;37986;51.238;17.128;2022-07-01T12:27:37;18.45;;;5.80;;
51961;SDS011;37986;51.238;17.128;2022-07-01T12:30:06;10.20;;;5.67;;
51961;SDS011;37986;51.238;17.128;2022-07-01T12:32:36;9.15;;;5.85;;
51961;SDS011;37986;51.238;17.128;2022-07-01T12:35:05;9.65;;;5.40;;
51961;SDS011;37986;51.238;17.128;2022-07-01T12:37:37;8.50;;;5.70;;
51961;SDS011;37986;51.238;17.128;2022-07-01T12:40:36;10.45;;;5.80;;
51961;SDS011;37986;51.238;17.128;2022-07-01T12:42:49;8.40;;;5.75;;
51961;SDS011;37986;51.238;17.128;2022-07-01T12:45:16;10.32;;;6.47;;
51961;SDS011;37986;51.238;17.128;2022-07-01T12:47:45;14.13;;;7.00;;
51961;SDS011;37986;51.238;17.128;2022-07-01T12:52:56;11.57;;;6.12;;
51961;SDS011;37986;51.238;17.128;2022-07-01T12:55:38;8.93;;;6.87;;
51961;SDS011;37986;51.238;17.128;2022-07-01T12:58:08;11.15;;;7.00;;
51961;SDS011;37986;51.238;17.128;2022-07-01T13:00:42;8.58;;;7.28;;
51961;SDS011;37986;51.238;17.128;2022-07-01T13:03:10;10.55;;;6.85;;
51961;SDS011;37986;51.238;17.128;2022-07-01T13:05:37;7.45;;;6.72;;
51961;SDS011;37986;51.238;17.128;2022-07-01T13:08:05;8.10;;;7.30;;
51961;SDS011;37986;51.238;17.128;2022-07-01T13:10:31;9.65;;;7.22;;
51961;SDS011;37986;51.238;17.128;2022-07-01T13:12:58;8.38;;;7.22;;
51961;SDS011;37986;51.238;17.128;2022-07-01T13:15:27;8.18;;;7.12;;
51961;SDS011;37986;51.238;17.128;2022-07-01T13:17:52;10.60;;;7.05;;
51961;SDS011;37986;51.238;17.128;2022-07-01T13:20:19;9.23;;;6.62;;
51961;SDS011;37986;51.238;17.128;2022-07-01T13:22:45;12.58;;;7.00;;
51961;SDS011;37986;51.238;17.128;2022-07-01T13:25:11;19.57;;;8.00;;
51961;SDS011;37986;51.238;17.128;2022-07-01T13:27:38;17.82;;;8.35;;
51961;SDS011;37986;51.238;17.128;2022-07-01T13:30:05;11.97;;;7.30;;
51961;SDS011;37986;51.238;17.128;2022-07-01T13:32:33;8.95;;;7.45;;
51961;SDS011;37986;51.238;17.128;2022-07-01T13:35:00;8.35;;;7.53;;
51961;SDS011;37986;51.238;17.128;2022-07-01T13:37:28;8.83;;;7.35;;
51961;SDS011;37986;51.238;17.128;2022-07-01T13:39:55;10.15;;;7.55;;
51961;SDS011;37986;51.238;17.128;2022-07-01T13:42:20;9.85;;;7.75;;
51961;SDS011;37986;51.238;17.128;2022-07-01T13:44:46;10.40;;;8.18;;
51961;SDS011;37986;51.238;17.128;2022-07-01T13:47:12;9.55;;;8.30;;
51961;SDS011;37986;51.238;17.128;2022-07-01T13:49:39;9.68;;;8.55;;
51961;SDS011;37986;51.238;17.128;2022-07-01T13:52:10;10.72;;;7.03;;
51961;SDS011;37986;51.238;17.128;2022-07-01T13:54:37;7.78;;;7.05;;
51961;SDS011;37986;51.238;17.128;2022-07-01T13:57:03;8.28;;;7.47;;
51961;SDS011;37986;51.238;17.128;2022-07-01T13:59:30;7.65;;;6.85;;
51961;SDS011;37986;51.238;17.128;2022-07-01T14:01:57;7.55;;;6.85;;
51961;SDS011;37986;51.238;17.128;2022-07-01T14:04:23;9.55;;;7.55;;
51961;SDS011;37986;51.238;17.128;2022-07-01T14:06:49;10.43;;;8.38;;
51961;SDS011;37986;51.238;17.128;2022-07-01T14:09:15;9.03;;;7.97;;
51961;SDS011;37986;51.238;17.128;2022-07-01T14:11:41;13.93;;;9.00;;
51961;SDS011;37986;51.238;17.128;2022-07-01T14:14:06;23.02;;;10.13;;
51961;SDS011;37986;51.238;17.128;2022-07-01T14:16:33;13.65;;;9.80;;
51961;SDS011;37986;51.238;17.128;2022-07-01T14:18:59;16.27;;;9.68;;
51961;SDS011;37986;51.238;17.128;2022-07-01T14:21:25;14.18;;;10.32;;
51961;SDS011;37986;51.238;17.128;2022-07-01T14:23:51;16.07;;;10.48;;
51961;SDS011;37986;51.238;17.128;2022-07-01T14:26:17;16.75;;;10.50;;
51961;SDS011;37986;51.238;17.128;2022-07-01T14:28:43;13.18;;;10.05;;
51961;SDS011;37986;51.238;17.128;2022-07-01T14:31:09;11.90;;;10.60;;
51961;SDS011;37986;51.238;17.128;2022-07-01T14:33:35;13.32;;;10.85;;
51961;SDS011;37986;51.238;17.128;2022-07-01T14:36:00;12.33;;;10.70;;
51961;SDS011;37986;51.238;17.128;2022-07-01T14:38:26;12.85;;;10.88;;
51961;SDS011;37986;51.238;17.128;2022-07-01T14:40:52;14.75;;;11.38;;
51961;SDS011;37986;51.238;17.128;2022-07-01T14:43:18;17.80;;;16.05;;
51961;SDS011;37986;51.238;17.128;2022-07-01T14:45:44;20.65;;;17.70;;
51961;SDS011;37986;51.238;17.128;2022-07-01T14:48:11;21.48;;;17.35;;
51961;SDS011;37986;51.238;17.128;2022-07-01T14:50:39;22.07;;;18.00;;
51961;SDS011;37986;51.238;17.128;2022-07-01T14:53:06;21.25;;;18.05;;